sensor_id;sensor_type;location;lat;lon;timestamp;temperature;humidity
54680;DHT22;40578;53.178;5.846;2022-07-29T00:00:13;15.20;99.90
54680;DHT22;40578;53.178;5.846;2022-07-29T00:02:39;15.20;99.90
54680;DHT22;40578;53.178;5.846;2022-07-29T00:05:05;15.20;99.90
54680;DHT22;40578;53.178;5.846;2022-07-29T00:07:31;15.20;99.90
54680;DHT22;40578;53.178;5.846;2022-07-29T00:09:57;15.20;99.90
54680;DHT22;40578;53.178;5.846;2022-07-29T00:12:24;15.20;99.90
54680;DHT22;40578;53.178;5.846;2022-07-29T00:14:50;15.20;99.90
54680;DHT22;40578;53.178;5.846;2022-07-29T00:17:16;15.20;99.90
54680;DHT22;40578;53.178;5.846;2022-07-29T00:19:41;15.20;99.90
54680;DHT22;40578;53.178;5.846;2022-07-29T00:22:07;15.20;99.90
54680;DHT22;40578;53.178;5.846;2022-07-29T00:24:33;15.20;99.90
54680;DHT22;40578;53.178;5.846;2022-07-29T00:26:58;15.20;99.90
54680;DHT22;40578;53.178;5.846;2022-07-29T00:29:24;15.30;99.90
54680;DHT22;40578;53.178;5.846;2022-07-29T00:31:50;15.20;99.90
54680;DHT22;40578;53.178;5.846;2022-07-29T00:34:15;15.20;99.90
54680;DHT22;40578;53.178;5.846;2022-07-29T00:36:59;15.20;99.90
54680;DHT22;40578;53.178;5.846;2022-07-29T00:39:25;15.20;99.90
54680;DHT22;40578;53.178;5.846;2022-07-29T00:41:51;15.20;99.90
54680;DHT22;40578;53.178;5.846;2022-07-29T00:44:16;15.20;99.90
54680;DHT22;40578;53.178;5.846;2022-07-29T00:46:42;15.20;99.90
54680;DHT22;40578;53.178;5.846;2022-07-29T00:49:08;15.20;99.90
54680;DHT22;40578;53.178;5.846;2022-07-29T00:51:35;15.20;99.90
54680;DHT22;40578;53.178;5.846;2022-07-29T00:54:02;15.20;99.90
54680;DHT22;40578;53.178;5.846;2022-07-29T00:56:30;15.20;99.90
54680;DHT22;40578;53.178;5.846;2022-07-29T00:58:57;15.20;99.90
54680;DHT22;40578;53.178;5.846;2022-07-29T01:01:22;15.20;99.90
54680;DHT22;40578;53.178;5.846;2022-07-29T01:03:48;15.20;99.90
54680;DHT22;40578;53.178;5.846;2022-07-29T01:06:16;15.10;99.90
54680;DHT22;40578;53.178;5.846;2022-07-29T01:08:42;15.10;99.90
54680;DHT22;40578;53.178;5.846;2022-07-29T01:11:08;15.20;99.90
54680;DHT22;40578;53.178;5.846;2022-07-29T01:13:34;15.20;99.90
54680;DHT22;40578;53.178;5.846;2022-07-29T01:16:10;15.20;99.90
54680;DHT22;40578;53.178;5.846;2022-07-29T01:18:44;15.30;99.90
54680;DHT22;40578;53.178;5.846;2022-07-29T01:29:57;15.30;99.90
54680;DHT22;40578;53.178;5.846;2022-07-29T01:32:29;15.20;1.00
54680;DHT22;40578;53.178;5.846;2022-07-29T01:37:37;15.30;1.00
54680;DHT22;40578;53.178;5.846;2022-07-29T01:40:05;15.30;1.00
54680;DHT22;40578;53.178;5.846;2022-07-29T01:42:44;15.40;1.00
54680;DHT22;40578;53.178;5.846;2022-07-29T01:45:50;15.40;1.00
54680;DHT22;40578;53.178;5.846;2022-07-29T01:48:22;15.40;1.00
54680;DHT22;40578;53.178;5.846;2022-07-29T01:50:50;15.40;1.00
54680;DHT22;40578;53.178;5.846;2022-07-29T01:53:28;15.50;1.00
54680;DHT22;40578;53.178;5.846;2022-07-29T01:55:55;15.40;1.00
54680;DHT22;40578;53.178;5.846;2022-07-29T01:58:23;15.40;1.00
54680;DHT22;40578;53.178;5.846;2022-07-29T02:00:50;15.40;1.00
54680;DHT22;40578;53.178;5.846;2022-07-29T02:03:17;15.40;1.00
54680;DHT22;40578;53.178;5.846;2022-07-29T02:05:44;15.50;1.00
54680;DHT22;40578;53.178;5.846;2022-07-29T02:08:13;15.40;1.00
54680;DHT22;40578;53.178;5.846;2022-07-29T02:10:42;15.40;1.00
54680;DHT22;40578;53.178;5.846;2022-07-29T02:13:09;15.40;1.00
54680;DHT22;40578;53.178;5.846;2022-07-29T02:15:37;15.40;1.00
54680;DHT22;40578;53.178;5.846;2022-07-29T02:18:14;15.40;1.00
54680;DHT22;40578;53.178;5.846;2022-07-29T02:20:52;15.50;1.00
54680;DHT22;40578;53.178;5.846;2022-07-29T02:23:21;15.50;99.90
54680;DHT22;40578;53.178;5.846;2022-07-29T02:25:53;15.50;99.90
54680;DHT22;40578;53.178;5.846;2022-07-29T02:28:20;15.50;99.90
54680;DHT22;40578;53.178;5.846;2022-07-29T02:30:48;15.50;99.90
54680;DHT22;40578;53.178;5.846;2022-07-29T02:33:16;15.50;99.90
54680;DHT22;40578;53.178;5.846;2022-07-29T02:35:45;15.40;99.90
54680;DHT22;40578;53.178;5.846;2022-07-29T02:38:13;15.50;99.90
54680;DHT22;40578;53.178;5.846;2022-07-29T02:41:28;15.50;99.90
54680;DHT22;40578;53.178;5.846;2022-07-29T02:43:57;15.40;99.90
54680;DHT22;40578;53.178;5.846;2022-07-29T02:46:29;15.50;99.90
54680;DHT22;40578;53.178;5.846;2022-07-29T02:51:51;15.40;99.90
54680;DHT22;40578;53.178;5.846;2022-07-29T02:54:45;15.40;99.90
54680;DHT22;40578;53.178;5.846;2022-07-29T02:57:21;15.30;99.90
54680;DHT22;40578;53.178;5.846;2022-07-29T02:59:50;15.30;1.00
54680;DHT22;40578;53.178;5.846;2022-07-29T03:02:17;15.20;1.00
54680;DHT22;40578;53.178;5.846;2022-07-29T03:04:43;15.20;1.00
54680;DHT22;40578;53.178;5.846;2022-07-29T03:07:11;15.20;1.00
54680;DHT22;40578;53.178;5.846;2022-07-29T03:09:38;15.20;1.00
54680;DHT22;40578;53.178;5.846;2022-07-29T03:12:06;15.20;1.00
54680;DHT22;40578;53.178;5.846;2022-07-29T03:14:32;15.10;1.00
54680;DHT22;40578;53.178;5.846;2022-07-29T03:16:58;15.10;1.00
54680;DHT22;40578;53.178;5.846;2022-07-29T03:19:24;15.10;1.00
54680;DHT22;40578;53.178;5.846;2022-07-29T03:21:51;15.10;1.00
54680;DHT22;40578;53.178;5.846;2022-07-29T03:24:28;15.10;1.00
54680;DHT22;40578;53.178;5.846;2022-07-29T03:26:55;15.10;1.00
54680;DHT22;40578;53.178;5.846;2022-07-29T03:29:21;15.10;1.00
54680;DHT22;40578;53.178;5.846;2022-07-29T03:31:47;15.10;1.00
54680;DHT22;40578;53.178;5.846;2022-07-29T03:34:13;15.10;1.00
54680;DHT22;40578;53.178;5.846;2022-07-29T03:36:38;15.00;1.00
54680;DHT22;40578;53.178;5.846;2022-07-29T03:39:04;15.50;1.00
54680;DHT22;40578;53.178;5.846;2022-07-29T03:41:31;15.10;1.00
54680;DHT22;40578;53.178;5.846;2022-07-29T03:43:58;15.10;1.00
54680;DHT22;40578;53.178;5.846;2022-07-29T03:46:26;15.10;1.00
54680;DHT22;40578;53.178;5.846;2022-07-29T03:48:58;15.10;1.00
54680;DHT22;40578;53.178;5.846;2022-07-29T03:51:25;15.10;1.00
54680;DHT22;40578;53.178;5.846;2022-07-29T03:53:51;15.20;1.00
54680;DHT22;40578;53.178;5.846;2022-07-29T03:56:21;15.10;1.00
54680;DHT22;40578;53.178;5.846;2022-07-29T03:58:48;15.00;1.00
54680;DHT22;40578;53.178;5.846;2022-07-29T04:01:15;15.00;1.00
54680;DHT22;40578;53.178;5.846;2022-07-29T04:03:43;15.10;1.00
54680;DHT22;40578;53.178;5.846;2022-07-29T04:06:11;15.00;1.00
54680;DHT22;40578;53.178;5.846;2022-07-29T04:08:37;15.10;1.00
54680;DHT22;40578;53.178;5.846;2022-07-29T04:11:04;15.00;1.00
54680;DHT22;40578;53.178;5.846;2022-07-29T04:13:30;15.00;1.00
54680;DHT22;40578;53.178;5.846;2022-07-29T04:15:56;15.00;1.00
54680;DHT22;40578;53.178;5.846;2022-07-29T04:18:21;15.00;1.00
54680;DHT22;40578;53.178;5.846;2022-07-29T04:20:47;15.00;1.00
54680;DHT22;40578;53.178;5.846;2022-07-29T04:23:12;15.00;1.00
54680;DHT22;40578;53.178;5.846;2022-07-29T04:25:39;15.00;1.00
54680;DHT22;40578;53.178;5.846;2022-07-29T04:28:05;15.00;1.00
54680;DHT22;40578;53.178;5.846;2022-07-29T04:30:32;15.00;1.00
54680;DHT22;40578;53.178;5.846;2022-07-29T04:33:00;15.00;1.00
54680;DHT22;40578;53.178;5.846;2022-07-29T04:35:26;15.00;1.00
54680;DHT22;40578;53.178;5.846;2022-07-29T04:37:52;15.00;1.00
54680;DHT22;40578;53.178;5.846;2022-07-29T04:40:18;15.00;1.00
54680;DHT22;40578;53.178;5.846;2022-07-29T04:42:44;15.00;2.80
54680;DHT22;40578;53.178;5.846;2022-07-29T04:45:09;15.00;1.00
54680;DHT22;40578;53.178;5.846;2022-07-29T04:47:35;15.00;1.00
54680;DHT22;40578;53.178;5.846;2022-07-29T04:50:01;15.10;1.00
54680;DHT22;40578;53.178;5.846;2022-07-29T04:52:26;15.10;1.00
54680;DHT22;40578;53.178;5.846;2022-07-29T04:54:52;15.10;1.00
54680;DHT22;40578;53.178;5.846;2022-07-29T04:57:17;15.10;1.00
54680;DHT22;40578;53.178;5.846;2022-07-29T04:59:43;15.10;1.00
54680;DHT22;40578;53.178;5.846;2022-07-29T05:02:09;15.10;1.00
54680;DHT22;40578;53.178;5.846;2022-07-29T05:04:35;15.10;1.00
54680;DHT22;40578;53.178;5.846;2022-07-29T05:07:00;15.10;1.00
54680;DHT22;40578;53.178;5.846;2022-07-29T05:09:26;15.20;1.00
54680;DHT22;40578;53.178;5.846;2022-07-29T05:11:51;15.30;1.00
54680;DHT22;40578;53.178;5.846;2022-07-29T05:14:17;15.30;1.00
54680;DHT22;40578;53.178;5.846;2022-07-29T05:16:43;15.30;1.00
54680;DHT22;40578;53.178;5.846;2022-07-29T05:19:08;15.40;1.00
54680;DHT22;40578;53.178;5.846;2022-07-29T05:21:34;15.40;1.00
54680;DHT22;40578;53.178;5.846;2022-07-29T05:24:00;15.60;1.00
54680;DHT22;40578;53.178;5.846;2022-07-29T05:26:26;15.60;99.90
54680;DHT22;40578;53.178;5.846;2022-07-29T05:28:51;15.60;99.90
54680;DHT22;40578;53.178;5.846;2022-07-29T05:31:17;15.60;99.90
54680;DHT22;40578;53.178;5.846;2022-07-29T05:33:43;15.50;99.90
54680;DHT22;40578;53.178;5.846;2022-07-29T05:36:08;15.50;99.90
54680;DHT22;40578;53.178;5.846;2022-07-29T05:38:35;15.60;99.90
54680;DHT22;40578;53.178;5.846;2022-07-29T05:41:01;15.70;99.90
54680;DHT22;40578;53.178;5.846;2022-07-29T05:43:28;15.60;99.90
54680;DHT22;40578;53.178;5.846;2022-07-29T05:45:54;15.60;99.90
54680;DHT22;40578;53.178;5.846;2022-07-29T05:48:19;15.60;99.90
54680;DHT22;40578;53.178;5.846;2022-07-29T05:50:45;15.70;99.90
54680;DHT22;40578;53.178;5.846;2022-07-29T05:53:11;15.80;99.90
54680;DHT22;40578;53.178;5.846;2022-07-29T05:55:37;15.80;99.90
54680;DHT22;40578;53.178;5.846;2022-07-29T05:58:02;15.90;99.90
54680;DHT22;40578;53.178;5.846;2022-07-29T06:00:28;16.00;99.90
54680;DHT22;40578;53.178;5.846;2022-07-29T06:02:53;16.10;99.90
54680;DHT22;40578;53.178;5.846;2022-07-29T06:05:19;16.10;99.90
54680;DHT22;40578;53.178;5.846;2022-07-29T06:07:45;16.20;99.90
54680;DHT22;40578;53.178;5.846;2022-07-29T06:10:10;16.20;1.00
54680;DHT22;40578;53.178;5.846;2022-07-29T06:12:36;16.60;99.90
54680;DHT22;40578;53.178;5.846;2022-07-29T06:15:02;16.70;99.90
54680;DHT22;40578;53.178;5.846;2022-07-29T06:17:28;16.80;99.90
54680;DHT22;40578;53.178;5.846;2022-07-29T06:19:53;16.80;99.90
54680;DHT22;40578;53.178;5.846;2022-07-29T06:22:19;16.80;99.90
54680;DHT22;40578;53.178;5.846;2022-07-29T06:24:44;16.80;99.90
54680;DHT22;40578;53.178;5.846;2022-07-29T06:27:11;17.00;99.90
54680;DHT22;40578;53.178;5.846;2022-07-29T06:29:37;16.90;99.90
54680;DHT22;40578;53.178;5.846;2022-07-29T06:32:03;17.10;99.90
54680;DHT22;40578;53.178;5.846;2022-07-29T06:34:29;17.00;99.90
54680;DHT22;40578;53.178;5.846;2022-07-29T06:36:54;16.90;99.90
54680;DHT22;40578;53.178;5.846;2022-07-29T06:39:20;17.30;99.90
54680;DHT22;40578;53.178;5.846;2022-07-29T06:41:50;17.10;99.90
54680;DHT22;40578;53.178;5.846;2022-07-29T06:44:16;17.20;99.90
54680;DHT22;40578;53.178;5.846;2022-07-29T06:46:43;17.20;99.90
54680;DHT22;40578;53.178;5.846;2022-07-29T06:49:09;17.20;99.90
54680;DHT22;40578;53.178;5.846;2022-07-29T06:51:35;17.40;99.90
54680;DHT22;40578;53.178;5.846;2022-07-29T06:54:01;17.40;99.90
54680;DHT22;40578;53.178;5.846;2022-07-29T06:56:31;17.50;99.90
54680;DHT22;40578;53.178;5.846;2022-07-29T06:58:57;17.50;99.90
54680;DHT22;40578;53.178;5.846;2022-07-29T07:01:23;17.60;47.30
54680;DHT22;40578;53.178;5.846;2022-07-29T07:03:48;17.70;37.40
54680;DHT22;40578;53.178;5.846;2022-07-29T07:06:14;17.80;99.90
54680;DHT22;40578;53.178;5.846;2022-07-29T07:08:39;17.70;99.90
54680;DHT22;40578;53.178;5.846;2022-07-29T07:11:05;17.80;63.50
54680;DHT22;40578;53.178;5.846;2022-07-29T07:13:32;17.90;29.20
54680;DHT22;40578;53.178;5.846;2022-07-29T07:16:00;17.90;79.80
54680;DHT22;40578;53.178;5.846;2022-07-29T07:18:26;18.00;32.40
54680;DHT22;40578;53.178;5.846;2022-07-29T07:20:52;18.10;1.00
54680;DHT22;40578;53.178;5.846;2022-07-29T07:23:17;18.10;14.20
54680;DHT22;40578;53.178;5.846;2022-07-29T07:25:43;18.10;28.10
54680;DHT22;40578;53.178;5.846;2022-07-29T07:28:09;18.20;33.30
54680;DHT22;40578;53.178;5.846;2022-07-29T07:30:34;18.30;7.40
54680;DHT22;40578;53.178;5.846;2022-07-29T07:33:00;18.20;1.00
54680;DHT22;40578;53.178;5.846;2022-07-29T07:35:26;18.20;1.00
54680;DHT22;40578;53.178;5.846;2022-07-29T07:37:53;18.30;1.00
54680;DHT22;40578;53.178;5.846;2022-07-29T07:40:18;18.20;1.00
54680;DHT22;40578;53.178;5.846;2022-07-29T07:42:44;18.20;1.00
54680;DHT22;40578;53.178;5.846;2022-07-29T07:45:10;18.30;1.00
54680;DHT22;40578;53.178;5.846;2022-07-29T07:47:37;18.20;1.00
54680;DHT22;40578;53.178;5.846;2022-07-29T07:50:08;18.20;1.00
54680;DHT22;40578;53.178;5.846;2022-07-29T07:52:34;18.20;1.00
54680;DHT22;40578;53.178;5.846;2022-07-29T07:54:59;18.20;1.00
54680;DHT22;40578;53.178;5.846;2022-07-29T07:57:25;18.10;1.00
54680;DHT22;40578;53.178;5.846;2022-07-29T07:59:51;18.10;1.00
54680;DHT22;40578;53.178;5.846;2022-07-29T08:02:16;18.10;1.00
54680;DHT22;40578;53.178;5.846;2022-07-29T08:04:42;18.10;1.00
54680;DHT22;40578;53.178;5.846;2022-07-29T08:07:08;18.20;1.00
54680;DHT22;40578;53.178;5.846;2022-07-29T08:09:34;18.20;1.00
54680;DHT22;40578;53.178;5.846;2022-07-29T08:12:00;18.20;1.00
54680;DHT22;40578;53.178;5.846;2022-07-29T08:14:32;18.30;1.00
54680;DHT22;40578;53.178;5.846;2022-07-29T08:16:57;18.40;1.00
54680;DHT22;40578;53.178;5.846;2022-07-29T08:19:23;18.50;1.00
54680;DHT22;40578;53.178;5.846;2022-07-29T08:21:49;18.50;1.00
54680;DHT22;40578;53.178;5.846;2022-07-29T08:24:14;18.60;1.00
54680;DHT22;40578;53.178;5.846;2022-07-29T08:26:58;18.70;1.00
54680;DHT22;40578;53.178;5.846;2022-07-29T08:29:24;18.90;1.00
54680;DHT22;40578;53.178;5.846;2022-07-29T08:31:49;19.00;1.00
54680;DHT22;40578;53.178;5.846;2022-07-29T08:34:15;19.10;1.00
54680;DHT22;40578;53.178;5.846;2022-07-29T08:36:40;19.20;1.00
54680;DHT22;40578;53.178;5.846;2022-07-29T08:39:06;19.20;1.00
54680;DHT22;40578;53.178;5.846;2022-07-29T08:41:32;19.20;1.00
54680;DHT22;40578;53.178;5.846;2022-07-29T08:43:57;19.20;1.00
54680;DHT22;40578;53.178;5.846;2022-07-29T08:46:23;19.20;1.00
54680;DHT22;40578;53.178;5.846;2022-07-29T08:48:49;19.20;1.00
54680;DHT22;40578;53.178;5.846;2022-07-29T08:51:19;19.10;1.00
54680;DHT22;40578;53.178;5.846;2022-07-29T08:53:46;19.20;1.00
54680;DHT22;40578;53.178;5.846;2022-07-29T08:56:15;19.20;1.00
54680;DHT22;40578;53.178;5.846;2022-07-29T08:58:45;19.10;1.00
54680;DHT22;40578;53.178;5.846;2022-07-29T09:01:14;19.00;1.00
54680;DHT22;40578;53.178;5.846;2022-07-29T09:03:43;19.20;1.00
54680;DHT22;40578;53.178;5.846;2022-07-29T09:06:13;19.20;1.00
54680;DHT22;40578;53.178;5.846;2022-07-29T09:08:42;19.10;1.00
54680;DHT22;40578;53.178;5.846;2022-07-29T09:11:08;19.10;1.00
54680;DHT22;40578;53.178;5.846;2022-07-29T09:13:34;19.10;1.00
54680;DHT22;40578;53.178;5.846;2022-07-29T09:16:00;19.10;1.00
54680;DHT22;40578;53.178;5.846;2022-07-29T09:43:12;19.10;1.00
54680;DHT22;40578;53.178;5.846;2022-07-29T09:45:39;19.10;1.00
54680;DHT22;40578;53.178;5.846;2022-07-29T09:48:19;19.10;1.00
54680;DHT22;40578;53.178;5.846;2022-07-29T09:50:45;19.10;1.00
54680;DHT22;40578;53.178;5.846;2022-07-29T09:56:00;19.20;1.00
54680;DHT22;40578;53.178;5.846;2022-07-29T09:58:25;19.20;1.00
54680;DHT22;40578;53.178;5.846;2022-07-29T10:00:52;19.20;1.00
54680;DHT22;40578;53.178;5.846;2022-07-29T10:03:19;19.30;1.00
54680;DHT22;40578;53.178;5.846;2022-07-29T10:05:48;19.40;1.00
54680;DHT22;40578;53.178;5.846;2022-07-29T10:08:28;19.30;1.00
54680;DHT22;40578;53.178;5.846;2022-07-29T10:11:12;19.30;1.00
54680;DHT22;40578;53.178;5.846;2022-07-29T10:13:38;19.20;1.00
54680;DHT22;40578;53.178;5.846;2022-07-29T10:16:04;19.20;1.00
54680;DHT22;40578;53.178;5.846;2022-07-29T10:18:31;19.10;1.00
54680;DHT22;40578;53.178;5.846;2022-07-29T10:20:58;19.10;1.00
54680;DHT22;40578;53.178;5.846;2022-07-29T10:23:27;19.00;4.30
54680;DHT22;40578;53.178;5.846;2022-07-29T10:25:53;19.10;1.00
54680;DHT22;40578;53.178;5.846;2022-07-29T10:28:19;19.20;1.00
54680;DHT22;40578;53.178;5.846;2022-07-29T10:30:45;19.30;1.00
54680;DHT22;40578;53.178;5.846;2022-07-29T10:36:56;19.10;1.00
54680;DHT22;40578;53.178;5.846;2022-07-29T10:42:28;19.20;1.00
54680;DHT22;40578;53.178;5.846;2022-07-29T10:44:55;19.30;1.00
54680;DHT22;40578;53.178;5.846;2022-07-29T10:47:25;19.50;1.00
54680;DHT22;40578;53.178;5.846;2022-07-29T10:50:02;19.40;1.00
54680;DHT22;40578;53.178;5.846;2022-07-29T10:52:53;19.50;1.00
54680;DHT22;40578;53.178;5.846;2022-07-29T10:55:35;19.60;1.00
54680;DHT22;40578;53.178;5.846;2022-07-29T10:58:22;19.60;1.00
54680;DHT22;40578;53.178;5.846;2022-07-29T11:00:51;19.80;1.00
54680;DHT22;40578;53.178;5.846;2022-07-29T11:03:46;19.80;1.00
54680;DHT22;40578;53.178;5.846;2022-07-29T11:06:12;19.90;1.00
54680;DHT22;40578;53.178;5.846;2022-07-29T11:08:38;19.90;1.00
54680;DHT22;40578;53.178;5.846;2022-07-29T11:13:46;19.90;1.00
54680;DHT22;40578;53.178;5.846;2022-07-29T11:16:14;19.90;1.00
54680;DHT22;40578;53.178;5.846;2022-07-29T11:21:37;19.60;1.00
54680;DHT22;40578;53.178;5.846;2022-07-29T11:24:29;19.60;1.00
54680;DHT22;40578;53.178;5.846;2022-07-29T11:27:13;19.50;1.00
54680;DHT22;40578;53.178;5.846;2022-07-29T11:32:16;19.60;1.00
54680;DHT22;40578;53.178;5.846;2022-07-29T11:34:46;19.60;1.00
54680;DHT22;40578;53.178;5.846;2022-07-29T11:39:41;19.70;1.00
54680;DHT22;40578;53.178;5.846;2022-07-29T11:44:58;19.80;1.00
54680;DHT22;40578;53.178;5.846;2022-07-29T11:47:28;19.70;1.00
54680;DHT22;40578;53.178;5.846;2022-07-29T11:49:56;19.80;1.00
54680;DHT22;40578;53.178;5.846;2022-07-29T11:52:42;19.80;1.00
54680;DHT22;40578;53.178;5.846;2022-07-29T11:55:10;19.80;1.00
54680;DHT22;40578;53.178;5.846;2022-07-29T11:57:47;19.90;1.00
54680;DHT22;40578;53.178;5.846;2022-07-29T12:00:30;19.80;1.00
54680;DHT22;40578;53.178;5.846;2022-07-29T12:02:59;19.90;1.00
54680;DHT22;40578;53.178;5.846;2022-07-29T12:05:51;19.80;1.00
54680;DHT22;40578;53.178;5.846;2022-07-29T12:08:20;19.90;1.00
54680;DHT22;40578;53.178;5.846;2022-07-29T12:10:48;20.00;1.00
54680;DHT22;40578;53.178;5.846;2022-07-29T12:13:16;20.10;1.00
54680;DHT22;40578;53.178;5.846;2022-07-29T12:15:51;20.10;1.00
54680;DHT22;40578;53.178;5.846;2022-07-29T12:18:18;20.10;1.00
54680;DHT22;40578;53.178;5.846;2022-07-29T12:20:45;20.20;1.00
54680;DHT22;40578;53.178;5.846;2022-07-29T12:23:11;20.40;1.00
54680;DHT22;40578;53.178;5.846;2022-07-29T12:25:38;20.40;1.00
54680;DHT22;40578;53.178;5.846;2022-07-29T12:28:07;20.50;1.00
54680;DHT22;40578;53.178;5.846;2022-07-29T12:30:42;20.60;1.00
54680;DHT22;40578;53.178;5.846;2022-07-29T12:33:16;20.70;99.90
54680;DHT22;40578;53.178;5.846;2022-07-29T12:35:50;20.80;99.90
54680;DHT22;40578;53.178;5.846;2022-07-29T12:38:17;21.00;1.00
54680;DHT22;40578;53.178;5.846;2022-07-29T12:40:44;21.10;99.90
54680;DHT22;40578;53.178;5.846;2022-07-29T12:43:15;21.20;99.90
54680;DHT22;40578;53.178;5.846;2022-07-29T12:45:43;21.20;99.90
54680;DHT22;40578;53.178;5.846;2022-07-29T12:48:10;21.30;99.90
54680;DHT22;40578;53.178;5.846;2022-07-29T12:50:53;21.30;99.90
54680;DHT22;40578;53.178;5.846;2022-07-29T12:53:19;21.50;99.90
54680;DHT22;40578;53.178;5.846;2022-07-29T12:55:46;21.70;99.90
54680;DHT22;40578;53.178;5.846;2022-07-29T13:01:10;21.80;99.90
54680;DHT22;40578;53.178;5.846;2022-07-29T13:03:56;21.80;99.90
54680;DHT22;40578;53.178;5.846;2022-07-29T13:06:35;21.80;99.90
54680;DHT22;40578;53.178;5.846;2022-07-29T13:11:56;21.80;99.90
54680;DHT22;40578;53.178;5.846;2022-07-29T13:14:33;21.70;99.90
54680;DHT22;40578;53.178;5.846;2022-07-29T13:17:04;21.70;99.90
54680;DHT22;40578;53.178;5.846;2022-07-29T13:19:41;21.70;99.90
54680;DHT22;40578;53.178;5.846;2022-07-29T13:22:12;21.70;99.90
54680;DHT22;40578;53.178;5.846;2022-07-29T13:24:50;21.70;99.90
54680;DHT22;40578;53.178;5.846;2022-07-29T13:27:17;21.70;99.90
54680;DHT22;40578;53.178;5.846;2022-07-29T13:29:43;21.80;99.90
54680;DHT22;40578;53.178;5.846;2022-07-29T13:32:09;21.90;99.90
54680;DHT22;40578;53.178;5.846;2022-07-29T13:34:34;22.00;99.90
54680;DHT22;40578;53.178;5.846;2022-07-29T13:37:00;22.10;99.90
54680;DHT22;40578;53.178;5.846;2022-07-29T13:39:26;22.10;99.90
54680;DHT22;40578;53.178;5.846;2022-07-29T13:41:51;22.20;99.90
54680;DHT22;40578;53.178;5.846;2022-07-29T13:44:17;22.20;99.90
54680;DHT22;40578;53.178;5.846;2022-07-29T13:46:43;22.20;99.90
54680;DHT22;40578;53.178;5.846;2022-07-29T13:49:08;22.30;99.90
54680;DHT22;40578;53.178;5.846;2022-07-29T13:51:34;22.40;99.90
54680;DHT22;40578;53.178;5.846;2022-07-29T13:54:00;22.50;99.90
54680;DHT22;40578;53.178;5.846;2022-07-29T13:56:26;22.80;99.90
54680;DHT22;40578;53.178;5.846;2022-07-29T13:58:51;23.10;99.90
54680;DHT22;40578;53.178;5.846;2022-07-29T14:01:17;23.30;99.90
54680;DHT22;40578;53.178;5.846;2022-07-29T14:03:42;23.60;99.90
54680;DHT22;40578;53.178;5.846;2022-07-29T14:06:08;23.70;99.90
54680;DHT22;40578;53.178;5.846;2022-07-29T14:08:34;23.80;99.90
54680;DHT22;40578;53.178;5.846;2022-07-29T14:11:00;23.80;99.90
54680;DHT22;40578;53.178;5.846;2022-07-29T14:13:25;23.70;99.90
54680;DHT22;40578;53.178;5.846;2022-07-29T14:15:52;23.80;99.90
54680;DHT22;40578;53.178;5.846;2022-07-29T14:18:17;23.90;99.90
54680;DHT22;40578;53.178;5.846;2022-07-29T14:20:43;24.00;99.90
54680;DHT22;40578;53.178;5.846;2022-07-29T14:23:08;24.00;99.90
54680;DHT22;40578;53.178;5.846;2022-07-29T14:25:34;24.00;99.90
54680;DHT22;40578;53.178;5.846;2022-07-29T14:28:00;23.90;99.90
54680;DHT22;40578;53.178;5.846;2022-07-29T14:30:25;23.70;99.90
54680;DHT22;40578;53.178;5.846;2022-07-29T14:32:51;23.60;99.90
54680;DHT22;40578;53.178;5.846;2022-07-29T14:35:17;23.50;99.90
54680;DHT22;40578;53.178;5.846;2022-07-29T14:37:43;23.50;99.90
54680;DHT22;40578;53.178;5.846;2022-07-29T14:40:09;23.60;99.90
54680;DHT22;40578;53.178;5.846;2022-07-29T14:42:35;23.70;99.90
54680;DHT22;40578;53.178;5.846;2022-07-29T14:45:02;23.80;99.90
54680;DHT22;40578;53.178;5.846;2022-07-29T14:47:29;23.90;99.90
54680;DHT22;40578;53.178;5.846;2022-07-29T14:49:55;24.10;99.90
54680;DHT22;40578;53.178;5.846;2022-07-29T14:52:20;24.10;99.90
54680;DHT22;40578;53.178;5.846;2022-07-29T14:54:46;24.00;99.90
54680;DHT22;40578;53.178;5.846;2022-07-29T14:57:11;24.00;99.90
54680;DHT22;40578;53.178;5.846;2022-07-29T14:59:37;23.90;99.90
54680;DHT22;40578;53.178;5.846;2022-07-29T15:02:03;23.90;99.90
54680;DHT22;40578;53.178;5.846;2022-07-29T15:04:28;24.10;99.90
54680;DHT22;40578;53.178;5.846;2022-07-29T15:06:54;24.30;99.90
54680;DHT22;40578;53.178;5.846;2022-07-29T15:09:19;24.30;99.90
54680;DHT22;40578;53.178;5.846;2022-07-29T15:11:45;24.30;99.90
54680;DHT22;40578;53.178;5.846;2022-07-29T15:14:11;24.20;99.90
54680;DHT22;40578;53.178;5.846;2022-07-29T15:16:37;24.20;99.90
54680;DHT22;40578;53.178;5.846;2022-07-29T15:19:04;24.20;99.90
54680;DHT22;40578;53.178;5.846;2022-07-29T15:21:29;24.20;99.90
54680;DHT22;40578;53.178;5.846;2022-07-29T15:23:55;24.40;99.90
54680;DHT22;40578;53.178;5.846;2022-07-29T15:26:21;24.60;99.90
54680;DHT22;40578;53.178;5.846;2022-07-29T15:28:46;24.60;99.90
54680;DHT22;40578;53.178;5.846;2022-07-29T15:31:12;24.50;99.90
54680;DHT22;40578;53.178;5.846;2022-07-29T15:33:39;24.60;99.90
54680;DHT22;40578;53.178;5.846;2022-07-29T15:36:05;24.70;99.90
54680;DHT22;40578;53.178;5.846;2022-07-29T15:38:30;24.80;99.90
54680;DHT22;40578;53.178;5.846;2022-07-29T15:40:56;24.80;99.90
54680;DHT22;40578;53.178;5.846;2022-07-29T15:43:23;24.90;99.90
54680;DHT22;40578;53.178;5.846;2022-07-29T15:45:48;24.80;99.90
54680;DHT22;40578;53.178;5.846;2022-07-29T15:48:33;24.60;99.90
54680;DHT22;40578;53.178;5.846;2022-07-29T15:50:59;24.60;99.90
54680;DHT22;40578;53.178;5.846;2022-07-29T15:53:25;24.40;99.90
54680;DHT22;40578;53.178;5.846;2022-07-29T15:55:51;24.40;99.90
54680;DHT22;40578;53.178;5.846;2022-07-29T15:58:16;24.40;99.90
54680;DHT22;40578;53.178;5.846;2022-07-29T16:00:42;24.40;99.90
54680;DHT22;40578;53.178;5.846;2022-07-29T16:03:08;24.50;99.90
54680;DHT22;40578;53.178;5.846;2022-07-29T16:05:33;24.60;99.90
54680;DHT22;40578;53.178;5.846;2022-07-29T16:07:59;24.70;99.90
54680;DHT22;40578;53.178;5.846;2022-07-29T16:10:25;24.80;98.80
54680;DHT22;40578;53.178;5.846;2022-07-29T16:12:50;24.80;99.90
54680;DHT22;40578;53.178;5.846;2022-07-29T16:15:16;25.00;99.60
54680;DHT22;40578;53.178;5.846;2022-07-29T16:17:42;25.20;99.90
54680;DHT22;40578;53.178;5.846;2022-07-29T16:20:07;25.30;48.70
54680;DHT22;40578;53.178;5.846;2022-07-29T16:22:33;25.40;80.10
54680;DHT22;40578;53.178;5.846;2022-07-29T16:24:59;25.70;77.00
54680;DHT22;40578;53.178;5.846;2022-07-29T16:27:24;25.70;65.20
54680;DHT22;40578;53.178;5.846;2022-07-29T16:29:53;25.90;75.60
54680;DHT22;40578;53.178;5.846;2022-07-29T16:32:19;26.20;46.70
54680;DHT22;40578;53.178;5.846;2022-07-29T16:34:44;26.00;8.20
54680;DHT22;40578;53.178;5.846;2022-07-29T16:37:10;26.00;7.50
54680;DHT22;40578;53.178;5.846;2022-07-29T16:39:35;25.90;12.80
54680;DHT22;40578;53.178;5.846;2022-07-29T16:42:01;25.80;6.40
54680;DHT22;40578;53.178;5.846;2022-07-29T16:44:27;26.00;1.00
54680;DHT22;40578;53.178;5.846;2022-07-29T16:46:52;26.20;1.00
54680;DHT22;40578;53.178;5.846;2022-07-29T16:49:18;26.20;1.00